Time;durP1;ratioP1;P1;durP2;ratioP2;P2;SDS_P1;SDS_P2;PMS_P1;PMS_P2;Temp;Humidity;BMP_temperature;BMP_pressure;BME280_temperature;BME280_humidity;BME280_pressure;Samples;Min_cycle;Max_cycle;Signal;HPM_P1;HPM_P2
2022/06/15 00:00:46;;;;;;;21.38;11.60;;;13.50;99.90;;;;;;5113972;28;20035;-71
2022/06/15 00:03:13;;;;;;;21.30;11.07;;;13.50;99.90;;;;;;5113855;28;20047;-71
2022/06/15 00:05:42;;;;;;;18.00;11.43;;;13.60;99.90;;;;;;5096825;28;20099;-71
2022/06/15 00:08:08;;;;;;;21.48;11.90;;;;;;;;;;5113688;28;20488;-71
2022/06/15 00:10:35;;;;;;;19.13;11.40;;;;;;;;;;5113631;28;20048;-70
2022/06/15 00:13:01;;;;;;;18.13;9.82;;;;;;;;;;5113565;28;20051;-71
2022/06/15 00:15:27;;;;;;;16.75;9.98;;;;;;;;;;5113787;28;20046;-71
2022/06/15 00:17:53;;;;;;;18.92;9.52;;;;;;;;;;5113446;28;20036;-71
2022/06/15 00:20:19;;;;;;;13.95;9.20;;;;;;;;;;5113508;28;20043;-71
2022/06/15 00:22:45;;;;;;;13.55;8.30;;;;;;;;;;5113270;28;20048;-71
2022/06/15 00:25:12;;;;;;;13.32;8.80;;;13.00;99.90;;;;;;5096707;28;20047;-71
2022/06/15 00:27:39;;;;;;;10.02;7.35;;;;;;;;;;5113735;28;20055;-71
2022/06/15 00:30:06;;;;;;;13.30;7.35;;;13.20;99.90;;;;;;5096399;28;20052;-71
2022/06/15 00:32:32;;;;;;;12.70;7.40;;;;;;;;;;5096230;28;20495;-71
2022/06/15 00:34:58;;;;;;;11.55;6.93;;;;;;;;;;5113320;28;20080;-71
2022/06/15 00:37:24;;;;;;;10.25;7.15;;;;;;;;;;5096253;28;20043;-71
2022/06/15 00:39:50;;;;;;;9.98;6.75;;;;;;;;;;5113119;28;20042;-71
2022/06/15 00:42:16;;;;;;;10.73;6.78;;;;;;;;;;5113014;28;20097;-71
2022/06/15 00:44:42;;;;;;;7.65;6.07;;;;;;;;;;5113368;28;20043;-70
2022/06/15 00:47:11;;;;;;;9.43;6.70;;;;;;;;;;5079329;28;20051;-71
2022/06/15 00:50:02;;;;;;;10.02;6.70;;;12.90;99.90;;;;;;5113012;28;20513;-71
2022/06/15 00:52:32;;;;;;;9.30;6.35;;;;;;;;;;5113106;28;20502;-71
2022/06/15 00:54:59;;;;;;;9.75;6.28;;;12.70;99.90;;;;;;5112760;28;20048;-71
2022/06/15 00:57:26;;;;;;;9.35;6.82;;;12.70;99.90;;;;;;5112920;28;20047;-71
2022/06/15 01:00:00;;;;;;;9.27;6.68;;;12.40;99.90;;;;;;5112977;28;20092;-71
2022/06/15 01:02:27;;;;;;;7.78;6.43;;;12.60;99.90;;;;;;5113107;28;20051;-71
2022/06/15 01:05:04;;;;;;;10.68;6.93;;;11.60;99.90;;;;;;5112834;28;20560;-70
2022/06/15 01:07:48;;;;;;;9.93;6.80;;;13.80;99.90;;;;;;5112831;28;20123;-71
2022/06/15 01:10:29;;;;;;;9.48;6.15;;;13.60;99.90;;;;;;5114814;27;20126;-73
2022/06/15 01:13:17;;;;;;;13.13;6.80;;;12.60;99.90;;;;;;5116073;28;20407;-73
2022/06/15 01:16:00;;;;;;;9.27;7.20;;;11.50;99.90;;;;;;5115907;28;20422;-73
2022/06/15 01:18:42;;;;;;;12.73;7.13;;;12.60;99.90;;;;;;5098961;28;20118;-73
2022/06/15 01:21:08;;;;;;;10.43;7.25;;;;;;;;;;5115891;28;20110;-73
2022/06/15 01:23:34;;;;;;;11.45;7.25;;;;;;;;;;5115957;28;20078;-73
2022/06/15 01:26:31;;;;;;;11.60;6.68;;;11.40;99.90;;;;;;5115791;28;20539;-73
2022/06/15 01:29:04;;;;;;;12.75;7.50;;;;;;;;;;5075520;28;20388;-73
2022/06/15 01:31:41;;;;;;;13.27;8.15;;;12.40;99.90;;;;;;5116212;28;20035;-73
2022/06/15 01:34:16;;;;;;;11.25;8.10;;;13.70;99.90;;;;;;5116755;27;20499;-73
2022/06/15 01:37:10;;;;;;;10.57;7.63;;;12.00;99.90;;;;;;5103479;27;20133;-73
2022/06/15 01:39:46;;;;;;;13.30;9.05;;;12.70;99.90;;;;;;5120340;27;20395;-74
2022/06/15 01:42:16;;;;;;;13.38;8.45;;;12.60;99.90;;;;;;5120274;27;20042;-73
2022/06/15 01:44:50;;;;;;;13.98;8.40;;;12.70;99.90;;;;;;5102862;27;20096;-73
2022/06/15 01:47:19;;;;;;;12.02;8.75;;;;;;;;;;5119881;27;20052;-73
2022/06/15 01:49:57;;;;;;;13.70;8.15;;;12.40;99.90;;;;;;5120245;27;20043;-74
2022/06/15 01:52:36;;;;;;;14.95;8.88;;;12.30;99.90;;;;;;5119946;27;20122;-74
2022/06/15 01:55:08;;;;;;;14.85;8.35;;;12.10;99.90;;;;;;5119740;27;20036;-74
2022/06/15 01:57:37;;;;;;;12.27;7.78;;;12.30;99.90;;;;;;5119796;27;20051;-74
2022/06/15 02:00:08;;;;;;;10.60;7.20;;;12.00;99.90;;;;;;5119734;27;20066;-74
2022/06/15 02:03:05;;;;;;;12.65;8.10;;;11.90;99.90;;;;;;5119695;27;20047;-73
2022/06/15 02:05:52;;;;;;;11.50;7.90;;;12.20;99.90;;;;;;5078259;27;20055;-73
2022/06/15 02:08:36;;;;;;;14.05;8.35;;;11.70;99.90;;;;;;5119556;27;20126;-73
2022/06/15 02:11:02;;;;;;;10.88;8.40;;;;;;;;;;5102244;27;20059;-73
2022/06/15 02:13:46;;;;;;;12.45;9.02;;;11.70;99.90;;;;;;5119353;27;20039;-73
2022/06/15 02:16:24;;;;;;;13.18;8.43;;;11.60;99.90;;;;;;5119264;27;20035;-73
2022/06/15 02:18:51;;;;;;;16.02;8.93;;;11.60;99.90;;;;;;5119349;27;20527;-73
2022/06/15 02:21:19;;;;;;;10.38;8.18;;;11.40;99.90;;;;;;5119837;27;20503;-70
2022/06/15 02:23:49;;;;;;;13.48;9.27;;;11.50;99.90;;;;;;5119416;27;20072;-70
2022/06/15 02:26:17;;;;;;;12.55;9.23;;;;;;;;;;5119188;27;20039;-70
2022/06/15 02:28:57;;;;;;;13.02;9.43;;;11.60;99.90;;;;;;5119374;27;20039;-70
2022/06/15 02:31:23;;;;;;;14.43;8.70;;;;;;;;;;5118984;27;20040;-70
2022/06/15 02:33:54;;;;;;;13.38;9.40;;;11.60;99.90;;;;;;5119079;27;20043;-70
2022/06/15 02:36:21;;;;;;;17.55;9.90;;;11.50;99.90;;;;;;5119211;27;20039;-70
2022/06/15 02:38:49;;;;;;;13.05;9.05;;;;;;;;;;5118977;27;20123;-70
2022/06/15 02:41:19;;;;;;;14.20;9.43;;;11.60;99.90;;;;;;5118809;27;20046;-70
2022/06/15 02:43:49;;;;;;;15.75;10.07;;;11.70;99.90;;;;;;5118895;27;20110;-71
2022/06/15 02:46:17;;;;;;;14.27;10.23;;;11.50;99.90;;;;;;5117557;27;20043;-71
2022/06/15 02:48:43;;;;;;;15.63;9.80;;;;;;;;;;5101785;27;20046;-70
2022/06/15 02:51:21;;;;;;;15.35;9.68;;;11.50;99.90;;;;;;5118622;27;20168;-70
2022/06/15 02:53:50;;;;;;;16.13;10.35;;;11.40;99.90;;;;;;5118648;27;20115;-70
2022/06/15 02:56:19;;;;;;;13.30;10.00;;;11.60;99.90;;;;;;5118735;27;20043;-70
2022/06/15 02:58:46;;;;;;;14.95;9.98;;;;;;;;;;5101754;27;20058;-70
2022/06/15 03:01:12;;;;;;;14.07;10.32;;;;;;;;;;5118789;27;20035;-70
2022/06/15 03:03:39;;;;;;;11.77;9.30;;;11.70;99.90;;;;;;5118461;27;20041;-71
2022/06/15 03:06:17;;;;;;;14.55;10.02;;;10.30;99.90;;;;;;5118297;27;20039;-71
2022/06/15 03:08:43;;;;;;;13.38;9.35;;;;;;;;;;5118642;27;20081;-71
2022/06/15 03:11:10;;;;;;;13.38;9.23;;;;;;;;;;5114621;28;20056;-70
2022/06/15 03:13:36;;;;;;;13.10;9.00;;;11.30;99.90;;;;;;5098004;28;20059;-71
2022/06/15 03:16:03;;;;;;;12.68;8.77;;;11.10;99.90;;;;;;5081312;28;20139;-71
2022/06/15 03:18:31;;;;;;;12.30;8.93;;;11.30;99.90;;;;;;5114670;28;20083;-71
2022/06/15 03:20:58;;;;;;;12.35;9.20;;;11.20;99.90;;;;;;5114690;28;20472;-71
2022/06/15 03:23:24;;;;;;;14.18;9.55;;;;;;;;;;5114653;28;20054;-73
2022/06/15 03:25:54;;;;;;;13.57;9.70;;;11.30;99.90;;;;;;5114587;28;20044;-74
2022/06/15 03:28:20;;;;;;;13.23;9.75;;;;;;;;;;5097503;28;20554;-74
2022/06/15 03:30:46;;;;;;;12.43;9.88;;;;;;;;;;5097754;28;20388;-73
2022/06/15 03:33:12;;;;;;;12.98;9.35;;;;;;;;;;5114442;28;20088;-73
2022/06/15 03:35:39;;;;;;;15.10;9.88;;;;;;;;;;5097410;28;20140;-73
2022/06/15 03:38:09;;;;;;;15.23;10.10;;;;;;;;;;5114548;28;20079;-74
2022/06/15 03:40:47;;;;;;;16.15;10.50;;;11.10;99.90;;;;;;5114575;28;20047;-74
2022/06/15 03:43:14;;;;;;;16.48;10.40;;;10.90;99.90;;;;;;5114314;28;20050;-74
2022/06/15 03:45:42;;;;;;;14.85;10.15;;;;;;;;;;5114430;28;20036;-73
2022/06/15 03:48:08;;;;;;;16.73;11.00;;;;;;;;;;5114147;28;20058;-73
2022/06/15 03:50:35;;;;;;;17.63;10.50;;;;;;;;;;5114364;28;20062;-73
2022/06/15 03:53:02;;;;;;;15.15;10.85;;;11.50;99.90;;;;;;5113891;28;20050;-70
2022/06/15 03:55:29;;;;;;;21.77;10.40;;;11.20;99.90;;;;;;5114055;28;20549;-70
2022/06/15 03:57:55;;;;;;;18.77;11.18;;;;;;;;;;5113556;28;20039;-70
2022/06/15 04:00:22;;;;;;;22.38;11.55;;;11.10;99.90;;;;;;5113693;28;20035;-70
2022/06/15 04:02:48;;;;;;;17.48;10.30;;;;;;;;;;5113716;28;20118;-70
2022/06/15 04:05:19;;;;;;;17.65;11.02;;;;;;;;;;5114083;28;20089;-70
2022/06/15 04:10:30;;;;;;;16.25;10.18;;;;;;;;;;5115287;27;20537;-71
2022/06/15 04:12:56;;;;;;;16.98;10.93;;;;;;;;;;5099993;27;20380;-71
2022/06/15 04:15:22;;;;;;;16.80;10.25;;;;;;;;;;5117042;27;20031;-71
2022/06/15 04:17:48;;;;;;;18.02;11.00;;;;;;;;;;5100007;27;20031;-71
2022/06/15 04:20:31;;;;;;;16.95;10.93;;;11.20;99.90;;;;;;5099973;27;20035;-71
2022/06/15 04:22:58;;;;;;;20.17;11.38;;;;;;;;;;5116886;27;20100;-71
2022/06/15 04:25:24;;;;;;;17.83;11.63;;;;;;;;;;5099776;27;20070;-71
2022/06/15 04:27:50;;;;;;;20.35;11.75;;;;;;;;;;5099896;27;20122;-71
2022/06/15 04:30:16;;;;;;;16.58;11.95;;;;;;;;;;5117033;27;20130;-71
2022/06/15 04:32:42;;;;;;;22.88;12.23;;;;;;;;;;5116702;27;20043;-71
2022/06/15 04:35:08;;;;;;;18.10;12.43;;;;;;;;;;5116764;27;20498;-71
2022/06/15 04:37:37;;;;;;;18.52;11.93;;;;;;;;;;5116646;27;20074;-71
2022/06/15 04:40:03;;;;;;;20.98;11.82;;;;;;;;;;5116613;27;20483;-71
2022/06/15 04:42:29;;;;;;;21.00;11.68;;;;;;;;;;5116618;27;20512;-71
2022/06/15 04:44:55;;;;;;;18.88;11.15;;;;;;;;;;5099521;27;20497;-71
2022/06/15 04:47:22;;;;;;;16.95;11.45;;;;;;;;;;5116479;27;20121;-70
2022/06/15 04:49:48;;;;;;;21.23;11.93;;;;;;;;;;5099451;27;20043;-71
2022/06/15 04:52:14;;;;;;;22.38;11.73;;;;;;;;;;5099303;27;20425;-71
2022/06/15 04:54:39;;;;;;;23.10;12.02;;;10.80;99.90;;;;;;5099471;27;20467;-71
2022/06/15 04:57:05;;;;;;;23.42;12.25;;;12.40;99.90;;;;;;5116209;27;20054;-71
2022/06/15 04:59:31;;;;;;;17.27;11.00;;;;;;;;;;5116288;27;20046;-71
2022/06/15 05:01:58;;;;;;;20.77;11.75;;;13.10;99.90;;;;;;5116300;27;20051;-71
2022/06/15 05:04:25;;;;;;;18.00;10.25;;;;;;;;;;5116175;27;20078;-71
2022/06/15 05:06:52;;;;;;;22.05;11.25;;;;;;;;;;5116122;27;20495;-71
2022/06/15 05:09:18;;;;;;;17.13;9.50;;;;;;;;;;5115362;27;20475;-71
2022/06/15 05:11:44;;;;;;;16.65;11.10;;;12.50;99.90;;;;;;5115976;27;20053;-71
2022/06/15 05:14:10;;;;;;;17.92;10.27;;;12.50;99.90;;;;;;5116041;27;20035;-70
2022/06/15 05:16:37;;;;;;;19.35;9.90;;;12.70;99.90;;;;;;5115978;27;20035;-70
2022/06/15 05:19:03;;;;;;;17.20;9.48;;;;;;;;;;5116130;28;20079;-71
2022/06/15 05:21:29;;;;;;;19.45;10.20;;;;;;;;;;5115960;28;20047;-71
2022/06/15 05:23:56;;;;;;;17.70;9.00;;;12.70;99.90;;;;;;5115890;28;20540;-70
2022/06/15 05:26:24;;;;;;;16.25;9.15;;;;;;;;;;5082550;28;20043;-71
2022/06/15 05:28:50;;;;;;;15.50;8.15;;;;;;;;;;5115924;28;20607;-70
2022/06/15 05:31:20;;;;;;;16.63;8.20;;;12.90;99.90;;;;;;5115854;28;20039;-70
2022/06/15 05:33:46;;;;;;;15.68;8.45;;;;;;;;;;5116110;28;20031;-71
2022/06/15 05:36:15;;;;;;;14.52;7.72;;;12.90;99.90;;;;;;5115883;28;20127;-71
2022/06/15 05:38:42;;;;;;;16.73;8.63;;;;;;;;;;5099123;28;20114;-70
2022/06/15 05:41:08;;;;;;;16.15;7.82;;;;;;;;;;5098928;28;20119;-71
2022/06/15 05:43:41;;;;;;;14.77;8.23;;;;;;;;;;5116006;28;20043;-71
2022/06/15 05:46:27;;;;;;;13.90;7.80;;;13.70;99.90;;;;;;5098775;28;20122;-70
2022/06/15 05:48:57;;;;;;;14.93;7.65;;;13.60;99.90;;;;;;5115657;28;20039;-71
2022/06/15 05:51:23;;;;;;;20.90;8.32;;;13.70;99.90;;;;;;5115941;28;20047;-71
2022/06/15 05:53:49;;;;;;;13.68;7.22;;;;;;;;;;5115652;28;20089;-70
2022/06/15 05:56:16;;;;;;;13.07;6.70;;;14.00;99.90;;;;;;5115736;28;20080;-70
2022/06/15 05:58:42;;;;;;;15.18;6.05;;;;;;;;;;5098557;28;20039;-70
2022/06/15 06:01:16;;;;;;;13.98;6.93;;;14.50;99.90;;;;;;5115591;28;20121;-71
2022/06/15 06:03:42;;;;;;;14.75;6.45;;;;;;;;;;5115436;28;20035;-73
2022/06/15 06:06:09;;;;;;;14.38;6.57;;;;;;;;;;5115489;28;20073;-74
2022/06/15 06:08:35;;;;;;;18.02;6.53;;;;;;;;;;5115975;28;20100;-74
2022/06/15 06:11:01;;;;;;;13.88;6.25;;;;;;;;;;5115466;28;20171;-74
2022/06/15 06:13:27;;;;;;;13.38;6.55;;;;;;;;;;5115361;28;20511;-73
2022/06/15 06:15:56;;;;;;;16.25;6.05;;;;;;;;;;5116964;28;20104;-74
2022/06/15 06:18:25;;;;;;;16.75;6.68;;;15.00;99.90;;;;;;5115376;28;20491;-74
2022/06/15 06:20:51;;;;;;;16.02;6.50;;;;;;;;;;5100303;27;20122;-74
2022/06/15 06:23:17;;;;;;;17.08;7.50;;;15.40;99.90;;;;;;5085263;27;20096;-73
2022/06/15 06:25:46;;;;;;;14.05;6.10;;;15.10;99.90;;;;;;5119012;27;20047;-74
2022/06/15 06:28:27;;;;;;;17.13;6.65;;;15.00;99.90;;;;;;5118898;27;20041;-73
2022/06/15 06:30:57;;;;;;;10.98;6.35;;;15.10;99.90;;;;;;5118992;27;20138;-73
2022/06/15 06:33:27;;;;;;;14.50;6.28;;;15.10;99.90;;;;;;5118943;27;20075;-73
2022/06/15 06:35:54;;;;;;;12.05;5.75;;;15.40;99.90;;;;;;5102715;27;20042;-73
2022/06/15 06:38:21;;;;;;;14.63;5.63;;;;;;;;;;5118998;27;20517;-73
2022/06/15 06:40:49;;;;;;;14.45;5.80;;;15.50;99.90;;;;;;5119065;27;20146;-73
2022/06/15 06:43:15;;;;;;;15.00;5.90;;;;;;;;;;5118645;27;20053;-73
2022/06/15 06:45:42;;;;;;;17.25;5.93;;;;;;;;;;5119334;27;20047;-73
2022/06/15 06:48:08;;;;;;;13.57;5.55;;;16.30;99.90;;;;;;5101703;27;20087;-74
2022/06/15 06:50:35;;;;;;;13.02;5.32;;;15.70;99.90;;;;;;5118846;27;20047;-74
2022/06/15 06:53:03;;;;;;;14.90;6.07;;;15.70;99.90;;;;;;5118374;27;20435;-74
2022/06/15 06:55:29;;;;;;;9.20;5.57;;;15.50;99.90;;;;;;5101621;27;20073;-74
2022/06/15 06:57:57;;;;;;;12.23;5.22;;;15.80;99.90;;;;;;5118703;27;20046;-74
2022/06/15 07:00:23;;;;;;;14.20;5.38;;;15.90;99.90;;;;;;5118642;27;20035;-74
2022/06/15 07:02:50;;;;;;;12.77;4.88;;;;;;;;;;5118557;27;20042;-74
2022/06/15 07:05:16;;;;;;;15.95;6.05;;;;;;;;;;5101619;27;20039;-73
2022/06/15 07:07:42;;;;;;;14.60;5.70;;;;;;;;;;5101577;27;20146;-73
2022/06/15 07:10:08;;;;;;;10.70;5.47;;;15.90;99.90;;;;;;5118196;27;20043;-74
2022/06/15 07:12:36;;;;;;;8.70;4.82;;;;;;;;;;5117918;27;20108;-74
2022/06/15 07:15:03;;;;;;;9.95;4.88;;;16.10;99.90;;;;;;5118053;27;20042;-74
2022/06/15 07:17:30;;;;;;;11.55;4.93;;;;;;;;;;5118241;27;20031;-71
2022/06/15 07:19:56;;;;;;;13.85;4.50;;;;;;;;;;5118433;27;20035;-70
2022/06/15 07:22:22;;;;;;;10.10;4.18;;;;;;;;;;5118148;27;20117;-70
2022/06/15 07:24:48;;;;;;;16.10;4.50;;;;;;;;;;5118065;27;20039;-71
2022/06/15 07:27:15;;;;;;;12.13;4.45;;;;;;;;;;5101258;27;20038;-71
2022/06/15 07:29:43;;;;;;;11.18;4.90;;;16.30;99.90;;;;;;5101079;27;20087;-73
2022/06/15 07:32:09;;;;;;;11.25;4.75;;;;;;;;;;5100133;27;20100;-71
2022/06/15 07:34:35;;;;;;;11.05;4.90;;;16.30;99.90;;;;;;5117878;27;20039;-71
2022/06/15 07:37:01;;;;;;;10.52;4.65;;;17.20;99.90;;;;;;5117962;27;20413;-71
2022/06/15 07:39:28;;;;;;;11.00;4.65;;;;;;;;;;5117711;27;20031;-73
2022/06/15 07:41:55;;;;;;;9.80;4.53;;;16.70;99.90;;;;;;5117837;27;20107;-73
2022/06/15 07:44:22;;;;;;;7.82;3.88;;;16.60;99.90;;;;;;5117876;27;20047;-71
2022/06/15 07:46:48;;;;;;;11.93;4.53;;;;;;;;;;5117493;27;20054;-71
2022/06/15 07:52:02;;;;;;;18.58;4.63;;;16.70;99.90;;;;;;5117319;27;20043;-71
2022/06/15 07:54:29;;;;;;;9.88;3.83;;;16.20;99.90;;;;;;5100362;27;20035;-71
2022/06/15 07:56:56;;;;;;;11.90;3.65;;;16.90;99.30;;;;;;5101158;27;20454;-71
2022/06/15 07:59:22;;;;;;;12.45;4.30;;;16.80;99.10;;;;;;5117323;27;20548;-71
2022/06/15 08:01:49;;;;;;;12.85;4.30;;;;;;;;;;5117259;27;20039;-71
2022/06/15 08:04:15;;;;;;;9.40;3.33;;;16.90;98.80;;;;;;5117192;27;20051;-71
2022/06/15 08:06:43;;;;;;;11.65;3.22;;;17.00;98.90;;;;;;5117259;27;20046;-71
2022/06/15 08:09:13;;;;;;;11.60;3.65;;;16.80;98.80;;;;;;5117077;27;20043;-71
2022/06/15 08:12:11;;;;;;;9.95;3.20;;;16.80;98.90;;;;;;5116889;27;20070;-71
2022/06/15 08:14:27;;;;;;;9.73;3.47;;;;;;;;;;5116770;27;20097;-71
2022/06/15 08:16:52;;;;;;;9.63;3.45;;;16.80;99.90;;;;;;5099912;27;20088;-71
2022/06/15 08:19:18;;;;;;;11.13;4.15;;;;;;;;;;5100099;27;20035;-71
2022/06/15 08:21:45;;;;;;;8.15;3.65;;;;;;;;;;5116997;27;20047;-71
2022/06/15 08:24:11;;;;;;;8.20;3.30;;;;;;;;;;5135216;27;20066;-71
2022/06/15 08:26:38;;;;;;;8.15;3.28;;;;;;;;;;5116833;27;20391;-71
2022/06/15 08:29:09;;;;;;;7.85;3.47;;;17.60;98.10;;;;;;5116621;28;20505;-71
2022/06/15 08:31:36;;;;;;;10.98;3.40;;;;;;;;;;5116876;27;20058;-71
2022/06/15 08:34:03;;;;;;;9.52;3.55;;;;;;;;;;5100149;27;20046;-71
2022/06/15 08:36:30;;;;;;;6.35;2.75;;;;;;;;;;5100165;27;20043;-70
2022/06/15 08:38:56;;;;;;;10.20;3.28;;;;;;;;;;5116953;27;20039;-70
2022/06/15 08:41:50;;;;;;;7.70;3.17;;;18.60;99.90;;;;;;5083058;27;20143;-71
2022/06/15 08:44:46;;;;;;;9.75;3.17;;;17.90;96.90;;;;;;5099475;27;20390;-71
2022/06/15 08:47:39;;;;;;;8.40;3.08;;;17.80;99.90;;;;;;5116514;27;20035;-71
2022/06/15 08:50:23;;;;;;;14.35;4.13;;;17.70;99.90;;;;;;5099495;27;20039;-71
2022/06/15 08:53:02;;;;;;;9.82;2.97;;;18.20;96.70;;;;;;5116446;27;20398;-71
2022/06/15 08:55:53;;;;;;;11.18;3.03;;;18.10;99.90;;;;;;5116808;27;20387;-71
2022/06/15 08:58:33;;;;;;;5.72;3.00;;;18.40;98.80;;;;;;5116192;27;20092;-71
2022/06/15 09:01:09;;;;;;;8.77;2.60;;;18.70;96.50;;;;;;5099293;27;20043;-71
2022/06/15 09:04:04;;;;;;;12.75;2.63;;;18.70;96.10;;;;;;5099346;27;20130;-71
2022/06/15 09:06:53;;;;;;;7.03;2.60;;;18.90;95.10;;;;;;5069180;27;20061;-71
2022/06/15 09:09:30;;;;;;;6.40;2.40;;;18.80;96.00;;;;;;5116459;27;20047;-71
2022/06/15 09:15:38;;;;;;;8.55;2.53;;;19.40;99.30;;;;;;5115927;28;20043;-71
2022/06/15 09:18:18;;;;;;;5.28;2.40;;;18.80;95.90;;;;;;5100044;27;20513;-71
2022/06/15 09:21:14;;;;;;;11.30;2.88;;;19.00;95.80;;;;;;5115963;27;20038;-70
2022/06/15 09:23:52;;;;;;;7.13;2.78;;;19.00;94.40;;;;;;5087618;28;20087;-71
2022/06/15 09:26:27;;;;;;;10.57;2.88;;;19.20;95.30;;;;;;5115778;28;20035;-71
2022/06/15 09:29:08;;;;;;;8.32;2.63;;;19.40;98.40;;;;;;5099213;28;20027;-71
2022/06/15 09:31:57;;;;;;;9.32;2.60;;;20.10;98.30;;;;;;5134118;28;20562;-71
2022/06/15 09:34:32;;;;;;;8.18;2.95;;;19.60;95.30;;;;;;5115859;28;20040;-72
2022/06/15 09:36:58;;;;;;;7.80;2.50;;;;;;;;;;5115933;28;20056;-72
2022/06/15 09:39:28;;;;;;;7.68;3.00;;;19.90;94.00;;;;;;5115847;28;20049;-73
2022/06/15 09:42:32;;;;;;;10.95;3.35;;;19.80;97.20;;;;;;5115825;28;20425;-72
2022/06/15 09:45:37;;;;;;;5.75;2.90;;;20.10;96.50;;;;;;5079403;28;20047;-72
2022/06/15 09:48:26;;;;;;;11.02;3.40;;;19.90;92.50;;;;;;5115658;28;20499;-72
2022/06/15 09:51:00;;;;;;;6.47;2.88;;;18.70;95.90;;;;;;5115931;28;20043;-72
2022/06/15 09:53:35;;;;;;;14.00;3.50;;;19.30;96.80;;;;;;5115691;28;20395;-72
2022/06/15 09:56:06;;;;;;;12.43;3.83;;;19.90;97.10;;;;;;5118058;27;20039;-71
2022/06/15 09:58:56;;;;;;;9.55;4.63;;;18.80;94.10;;;;;;5119525;27;20046;-71
2022/06/15 10:01:28;;;;;;;10.93;4.05;;;17.80;97.60;;;;;;5119823;27;20383;-71
2022/06/15 10:03:57;;;;;;;11.05;4.10;;;18.60;94.80;;;;;;5102409;27;20123;-71
2022/06/15 10:06:26;;;;;;;8.98;4.13;;;;;;;;;;5102395;27;20043;-71
2022/06/15 10:08:52;;;;;;;7.82;4.35;;;18.70;95.00;;;;;;5119499;27;20368;-71
2022/06/15 10:11:56;;;;;;;13.35;4.72;;;19.10;98.10;;;;;;5102129;27;20058;-71
2022/06/15 10:14:31;;;;;;;8.45;4.25;;;18.50;97.40;;;;;;5080809;27;20050;-71
2022/06/15 10:17:00;;;;;;;9.10;4.03;;;19.50;94.20;;;;;;5119196;27;20043;-71
2022/06/15 10:19:30;;;;;;;11.13;4.40;;;19.90;97.60;;;;;;5119230;27;20035;-74
2022/06/15 10:22:08;;;;;;;11.00;3.80;;;20.60;96.50;;;;;;5119448;27;20145;-73
2022/06/15 10:24:40;;;;;;;10.57;3.95;;;20.10;96.70;;;;;;5119030;27;20050;-74
2022/06/15 10:27:30;;;;;;;9.40;3.70;;;20.90;96.80;;;;;;5119358;27;20051;-74
2022/06/15 10:29:58;;;;;;;10.07;3.97;;;20.80;96.70;;;;;;5102175;27;20047;-73
2022/06/15 10:32:24;;;;;;;11.13;4.68;;;21.10;96.10;;;;;;5101977;27;20039;-74
2022/06/15 10:34:54;;;;;;;11.38;3.88;;;20.60;92.20;;;;;;5119188;27;20467;-74
2022/06/15 10:37:22;;;;;;;7.88;3.63;;;20.50;92.20;;;;;;5102156;27;20124;-74
2022/06/15 10:39:51;;;;;;;12.65;4.60;;;19.90;95.10;;;;;;5119059;27;20043;-74
2022/06/15 10:42:24;;;;;;;9.55;3.60;;;20.60;95.30;;;;;;5101722;27;20118;-74
2022/06/15 10:45:00;;;;;;;9.02;4.20;;;20.50;90.70;;;;;;5101984;27;20444;-74
2022/06/15 10:47:41;;;;;;;9.90;3.88;;;19.70;94.80;;;;;;5118705;27;20099;-74
2022/06/15 10:50:34;;;;;;;12.27;4.03;;;19.10;95.00;;;;;;5118718;27;20518;-74
2022/06/15 10:53:06;;;;;;;7.65;3.58;;;19.80;95.40;;;;;;5118576;27;20121;-74
2022/06/15 11:04:08;;;;;;;8.02;3.60;;;21.20;94.60;;;;;;5118461;27;20079;-75
2022/06/15 11:06:40;;;;;;;7.50;3.15;;;21.10;94.00;;;;;;5117217;28;20082;-74
2022/06/15 11:09:15;;;;;;;;;;;20.60;91.00;;;;;;5118795;27;20046;-74
2022/06/15 11:11:41;;;;;;;7.57;3.40;;;21.20;94.00;;;;;;5117922;27;19921;-75
2022/06/15 11:14:17;;;;;;;8.15;3.80;;;21.00;90.20;;;;;;5118496;27;20031;-74
2022/06/15 11:19:29;;;;;;;12.45;4.45;;;21.80;93.60;;;;;;5118750;27;20122;-74
2022/06/15 11:22:17;;;;;;;9.98;4.18;;;21.50;93.10;;;;;;5101548;27;20491;-74
2022/06/15 11:24:57;;;;;;;11.13;4.32;;;21.10;88.80;;;;;;5118263;27;20035;-74
2022/06/15 11:27:32;;;;;;;11.52;4.20;;;21.40;86.70;;;;;;5118052;27;20047;-74
2022/06/15 11:30:12;;;;;;;7.53;3.95;;;21.20;90.00;;;;;;5117970;27;20518;-74
2022/06/15 11:32:45;;;;;;;11.23;4.10;;;21.30;90.10;;;;;;5117801;27;20491;-75
2022/06/15 11:35:18;;;;;;;11.73;4.85;;;22.00;93.10;;;;;;5100894;27;20039;-75
2022/06/15 11:38:10;;;;;;;10.43;4.07;;;20.80;92.40;;;;;;5117796;27;20035;-74
2022/06/15 11:40:41;;;;;;;9.75;4.47;;;21.30;84.80;;;;;;5117860;27;20081;-74
2022/06/15 11:43:16;;;;;;;9.50;4.10;;;21.50;84.40;;;;;;5117912;27;20162;-75
2022/06/15 11:46:00;;;;;;;11.52;4.38;;;21.10;84.20;;;;;;5117937;27;20039;-75
2022/06/15 11:48:41;;;;;;;7.15;3.78;;;20.60;92.10;;;;;;5117587;27;20039;-74
2022/06/15 11:51:21;;;;;;;6.78;3.63;;;21.10;92.40;;;;;;5117766;27;20049;-75
2022/06/15 11:54:16;;;;;;;9.15;3.90;;;20.40;85.90;;;;;;5100237;27;20092;-74
2022/06/15 11:57:09;;;;;;;10.63;4.32;;;21.50;91.70;;;;;;5095945;27;20047;-75
2022/06/15 11:59:34;;;;;;;8.48;3.63;;;21.50;87.50;;;;;;5117428;27;20035;-74
2022/06/15 12:02:39;;;;;;;9.88;4.57;;;22.10;91.50;;;;;;5117331;27;20043;-76
2022/06/15 12:05:23;;;;;;;8.05;3.67;;;21.30;91.40;;;;;;5117240;27;20039;-74
2022/06/15 12:07:56;;;;;;;8.32;3.80;;;21.60;91.50;;;;;;5117156;27;20039;-74
2022/06/15 12:10:44;;;;;;;9.43;3.70;;;22.00;91.30;;;;;;5117470;27;20092;-75
2022/06/15 12:14:14;;;;;;;12.20;4.85;;;22.10;90.90;;;;;;5113507;28;20060;-74
2022/06/15 12:17:03;;;;;;;10.77;4.22;;;21.60;82.40;;;;;;4997231;28;20096;-74
2022/06/15 12:19:42;;;;;;;6.47;3.40;;;21.70;81.80;;;;;;5015701;28;20385;-74
2022/06/15 12:22:15;;;;;;;6.15;4.03;;;21.90;90.50;;;;;;5102852;28;20135;-75
2022/06/15 12:25:00;;;;;;;10.88;4.40;;;21.80;84.00;;;;;;5096617;28;20122;-74
2022/06/15 12:27:41;;;;;;;9.32;4.60;;;21.70;81.50;;;;;;5113637;28;20053;-74
2022/06/15 12:30:42;;;;;;;13.45;4.30;;;22.40;89.80;;;;;;5113319;28;20051;-74
2022/06/15 12:33:33;;;;;;;9.48;3.50;;;22.20;89.80;;;;;;5015399;28;20112;-74
2022/06/15 12:36:14;;;;;;;9.55;3.50;;;21.70;90.10;;;;;;5109372;28;20066;-74
2022/06/15 12:38:49;;;;;;;13.25;3.72;;;22.40;90.10;;;;;;5096575;28;20184;-75
2022/06/15 12:44:05;;;;;;;9.48;3.40;;;22.70;83.40;;;;;;5113282;28;20096;-75
2022/06/15 12:46:31;;;;;;;11.95;3.67;;;23.30;89.20;;;;;;5113408;28;20039;-75
2022/06/15 12:49:16;;;;;;;7.93;4.15;;;23.20;87.90;;;;;;5113570;28;20052;-75
2022/06/15 12:51:52;;;;;;;8.90;3.60;;;23.00;87.70;;;;;;5113128;28;20055;-74
2022/06/15 12:54:24;;;;;;;8.57;3.60;;;21.40;87.10;;;;;;5112987;28;20079;-75
2022/06/15 12:57:00;;;;;;;;;;;22.20;80.60;;;;;;5113326;28;20487;-75
2022/06/15 12:59:31;;;;;;;9.10;3.80;;;22.20;88.40;;;;;;5112880;28;19924;-75
2022/06/15 13:02:27;;;;;;;9.55;3.50;;;22.90;88.40;;;;;;5096201;28;20078;-75
2022/06/15 13:05:14;;;;;;;11.55;3.97;;;22.60;88.30;;;;;;5096080;28;20101;-73
2022/06/15 13:07:42;;;;;;;13.25;4.30;;;22.50;80.40;;;;;;5112982;28;20083;-73
2022/06/15 13:10:07;;;;;;;9.18;4.40;;;23.00;88.20;;;;;;5112832;28;20044;-74
2022/06/15 13:12:58;;;;;;;10.60;3.92;;;22.20;77.20;;;;;;5112487;28;20213;-74
2022/06/15 13:15:27;;;;;;;10.98;3.88;;;21.60;87.50;;;;;;5111872;28;20048;-74
2022/06/15 13:20:53;;;;;;;11.18;4.13;;;22.40;87.90;;;;;;5112533;28;20102;-74
2022/06/15 13:23:59;;;;;;;7.18;3.13;;;22.00;88.70;;;;;;5112331;28;20100;-74
2022/06/15 13:26:49;;;;;;;12.63;3.80;;;22.00;79.80;;;;;;5095617;28;20127;-74
2022/06/15 13:29:17;;;;;;;9.70;3.97;;;22.00;88.10;;;;;;5097779;28;20095;-74
2022/06/15 13:31:42;;;;;;;8.75;3.63;;;22.20;80.40;;;;;;5112107;28;20483;-74
2022/06/15 13:34:10;;;;;;;10.25;3.53;;;22.80;78.60;;;;;;5095724;28;20042;-74
2022/06/15 13:36:37;;;;;;;9.98;3.33;;;23.30;85.70;;;;;;5112428;28;20484;-74
2022/06/15 13:39:23;;;;;;;8.50;2.97;;;23.20;85.40;;;;;;5095670;28;20067;-74
2022/06/15 13:42:21;;;;;;;5.75;3.13;;;22.20;86.00;;;;;;5112380;28;20040;-74
2022/06/15 13:44:59;;;;;;;8.32;3.42;;;22.30;82.90;;;;;;5112576;28;20388;-74
2022/06/15 13:47:28;;;;;;;9.73;3.30;;;23.10;75.90;;;;;;5112560;28;20431;-75
2022/06/15 13:50:00;;;;;;;6.38;3.60;;;21.50;82.30;;;;;;5112469;28;20039;-74
2022/06/15 13:52:30;;;;;;;8.50;3.60;;;22.60;76.60;;;;;;5095329;28;20119;-74
2022/06/15 13:55:17;;;;;;;7.20;3.53;;;23.00;84.10;;;;;;5112166;28;20067;-75
2022/06/15 13:57:51;;;;;;;6.22;3.00;;;22.40;82.70;;;;;;5112090;28;20491;-75
2022/06/15 14:00:47;;;;;;;9.88;2.88;;;22.20;78.90;;;;;;5112271;28;20130;-75
2022/06/15 14:03:28;;;;;;;7.28;2.70;;;23.30;75.60;;;;;;5095101;28;20048;-75
2022/06/15 14:06:12;;;;;;;8.15;2.90;;;21.70;81.60;;;;;;5095105;28;20067;-75
2022/06/15 14:08:54;;;;;;;8.10;3.28;;;22.80;83.10;;;;;;5112031;28;20488;-75